KCPS/CPS METAR and TAF weather

Enter ICAO airport designator
Station Type Date Time Source
KCPS METAR 2019/02/23 22:53 UTC NOAA

KCPS 232253Z 00000KT 3SM BR OVC006 13/12 A2952 RMK AO2 CIG 005V009 SLP998 T01280117


Station Type Date Time Source
KCPS Decoded METAR 2019/02/23 22:53 UTC NOAA

ST LOUIS DOWNTOWN AIRPORT, IL, United States (KCPS) 38-34N 090-09W 126M
Feb 23, 2019 - 05:53 PM EST / 2019.02.23 2253 UTC
Wind: Calm:0
Visibility: 3 mile(s):0
Sky conditions: overcast
Weather: mist
Temperature: 55.0 F (12.8 C)
Dew Point: 53.1 F (11.7 C)
Relative Humidity: 93%
Pressure (altimeter): 29.52 in. Hg (999 hPa)
ob: KCPS 232253Z 00000KT 3SM BR OVC006 13/12 A2952 RMK AO2 CIG 005V009 SLP998 T01280117
cycle: 23

Station Type Date Time Source
KCPS TAF 2019/02/23 22:42 UTC NOAA

TAF
AMD KCPS 232140Z 2322/2418 13010KT 1SM BR OVC003
FM232300 18011G18KT P6SM BKN007
FM240100 20011G17KT P6SM SCT007
FM240500 24017G40KT P6SM BKN015
FM241300 28019G34KT P6SM SCT020


Example: see airport list